Time;durP1;ratioP1;P1;durP2;ratioP2;P2;SDS_P1;SDS_P2;PMS_P1;PMS_P2;Temp;Humidity;BMP_temperature;BMP_pressure;BME280_temperature;BME280_humidity;BME280_pressure;Samples;Min_cycle;Max_cycle;Signal;HPM_P1;HPM_P2
2021/12/23 00:00:43;;;;;;;23.27;16.20;;;;;;;-0.78;58.27;102700.31;2080086;28;20183;-65
2021/12/23 00:01:44;;;;;;;26.00;15.60;;;;;;;-0.78;58.43;102696.78;2081060;28;20194;-65
2021/12/23 00:02:45;;;;;;;24.45;16.98;;;;;;;-0.85;58.70;102680.88;2080046;28;20324;-65
2021/12/23 00:03:46;;;;;;;25.27;15.53;;;;;;;-2.10;58.03;102481.53;2081385;28;20161;-65
2021/12/23 00:04:46;;;;;;;25.47;16.40;;;;;;;-0.77;58.26;102694.56;2080993;28;20190;-66
2021/12/23 00:05:47;;;;;;;26.00;17.10;;;;;;;-0.77;57.81;102692.94;2081230;28;20273;-65
2021/12/23 00:06:47;;;;;;;24.10;15.80;;;;;;;-0.76;57.98;102698.88;2079490;28;20241;-65
2021/12/23 00:07:47;;;;;;;21.70;14.73;;;;;;;-0.91;58.13;102698.44;2079859;28;20201;-65
2021/12/23 00:08:48;;;;;;;25.20;15.37;;;;;;;-0.89;58.62;102700.84;2081047;28;20179;-65
2021/12/23 00:10:50;;;;;;;19.63;13.90;;;;;;;-0.82;58.12;102694.66;2080425;28;20181;-65
2021/12/23 00:11:51;;;;;;;21.67;14.50;;;;;;;-0.85;58.15;102697.19;2080049;28;20184;-65
2021/12/23 00:12:51;;;;;;;19.30;14.20;;;;;;;-0.86;57.79;102690.94;2080158;28;20179;-65
2021/12/23 00:14:01;;;;;;;20.60;13.43;;;;;;;-0.86;58.01;102690.94;2081098;28;20182;-65
2021/12/23 00:15:04;;;;;;;19.60;14.07;;;;;;;-0.93;57.92;102692.47;2081225;28;20543;-65
2021/12/23 00:16:16;;;;;;;20.33;13.20;;;;;;;-1.14;58.35;102655.13;2080180;28;20290;-65
2021/12/23 00:18:02;;;;;;;20.70;14.18;;;;;;;-0.93;58.07;102697.13;2080750;28;20170;-65
2021/12/23 00:18:45;;;;;;;17.02;12.40;;;;;;;-0.96;58.17;102693.88;2080469;28;20199;-65
2021/12/23 00:23:24;;;;;;;19.63;13.18;;;;;;;-0.97;58.27;102699.66;2080613;28;20242;-65
2021/12/23 00:23:49;;;;;;;20.80;13.15;;;;;;;-1.07;58.88;102692.50;2072914;28;20648;-65
2021/12/23 00:24:50;;;;;;;19.23;13.03;;;;;;;-1.63;58.77;102621.31;2076037;28;20608;-65
2021/12/23 00:25:58;;;;;;;19.87;13.73;;;;;;;-1.08;58.86;102687.34;2081023;28;20206;-65
2021/12/23 00:26:58;;;;;;;19.42;13.82;;;;;;;-1.09;58.85;102691.19;2079852;28;20369;-65
2021/12/23 00:27:59;;;;;;;20.47;13.30;;;;;;;-1.23;59.17;102674.88;2080190;28;20198;-65
2021/12/23 00:28:59;;;;;;;20.40;14.27;;;;;;;-1.12;59.29;102686.38;2079704;28;20170;-65
2021/12/23 00:30:00;;;;;;;19.97;14.47;;;;;;;-1.11;59.19;102688.75;2080192;28;20178;-65
2021/12/23 00:31:01;;;;;;;21.10;14.33;;;;;;;-1.14;59.14;102680.41;2080325;28;20190;-65
2021/12/23 00:32:05;;;;;;;21.73;13.85;;;;;;;-1.17;59.33;102700.88;2080575;28;20169;-65
2021/12/23 00:33:06;;;;;;;21.77;14.55;;;;;;;-1.26;59.57;102678.19;2080943;28;20174;-65
2021/12/23 00:34:09;;;;;;;25.73;15.10;;;;;;;-1.22;59.54;102692.03;2080247;28;20549;-66
2021/12/23 00:35:10;;;;;;;21.95;15.00;;;;;;;-1.24;59.09;102702.38;2080409;28;20197;-65
2021/12/23 00:36:12;;;;;;;22.08;15.05;;;;;;;-1.26;59.39;102691.78;2079898;28;20244;-65
2021/12/23 00:37:13;;;;;;;21.10;15.43;;;;;;;-1.27;59.37;102695.63;2080000;28;20184;-64
2021/12/23 00:38:25;;;;;;;24.90;15.93;;;;;;;-1.31;59.53;102693.81;2080189;28;20216;-65
2021/12/23 00:39:26;;;;;;;22.25;14.38;;;;;;;-2.13;59.49;102573.38;2079627;28;20300;-65
2021/12/23 00:40:27;;;;;;;26.45;15.40;;;;;;;-1.35;59.73;102694.75;2079403;28;20180;-65
2021/12/23 00:41:31;;;;;;;25.52;15.77;;;;;;;-1.38;59.93;102705.09;2080908;28;20191;-65
2021/12/23 00:42:33;;;;;;;23.05;15.15;;;;;;;-1.38;59.65;102699.66;2080089;28;20193;-65
2021/12/23 00:43:34;;;;;;;22.85;15.75;;;;;;;-1.39;59.95;102707.34;2072704;28;20181;-65
2021/12/23 00:44:36;;;;;;;25.08;16.60;;;;;;;-2.21;60.04;102575.19;2072597;28;20183;-65
2021/12/23 00:45:37;;;;;;;27.55;16.45;;;;;;;-1.33;60.02;102706.13;2072860;28;20236;-65
2021/12/23 00:46:38;;;;;;;24.20;16.13;;;;;;;-2.03;60.12;102598.75;2072635;28;20196;-65
2021/12/23 00:47:38;;;;;;;25.53;16.40;;;;;;;-1.28;59.93;102695.97;2077173;28;20663;-65
2021/12/23 00:48:39;;;;;;;25.40;17.03;;;;;;;-1.30;59.85;102698.16;2080749;28;20621;-65
2021/12/23 00:49:40;;;;;;;23.67;15.57;;;;;;;-1.29;60.13;102705.19;2080221;28;20182;-65
2021/12/23 00:50:40;;;;;;;24.20;16.77;;;;;;;-2.44;59.76;102538.13;2079990;28;20186;-65
2021/12/23 00:51:41;;;;;;;24.47;16.63;;;;;;;-1.23;59.74;102705.91;2080316;28;20203;-65
2021/12/23 00:52:42;;;;;;;25.30;17.30;;;;;;;-2.38;59.58;102526.88;2080191;28;20179;-65
2021/12/23 00:53:44;;;;;;;24.97;16.77;;;;;;;-1.32;59.94;102706.63;2080917;28;20182;-65
2021/12/23 00:54:45;;;;;;;22.92;15.45;;;;;;;-1.30;60.05;102700.88;2080746;28;20178;-65
2021/12/23 00:55:49;;;;;;;22.77;15.57;;;;;;;-1.27;59.87;102703.00;2080850;28;20179;-65
2021/12/23 00:56:51;;;;;;;25.58;16.52;;;;;;;-1.30;59.67;102698.16;2079688;28;20181;-65
2021/12/23 00:57:51;;;;;;;23.15;15.00;;;;;;;-1.36;59.95;102704.81;2080736;28;20186;-65
2021/12/23 01:00:19;;;;;;;21.75;14.50;;;;;;;-1.38;60.02;102698.88;2080394;28;20169;-65
2021/12/23 01:01:19;;;;;;;22.85;14.63;;;;;;;-1.34;60.09;102699.84;2079942;28;20178;-65
2021/12/23 01:02:27;;;;;;;21.23;14.43;;;;;;;-1.38;59.99;102704.31;2080207;28;20184;-65
2021/12/23 01:03:28;;;;;;;20.33;13.95;;;;;;;-1.40;60.34;102706.50;2080798;28;20388;-65
2021/12/23 01:04:29;;;;;;;20.98;14.10;;;;;;;-1.45;60.08;102703.09;2080461;28;20705;-64
2021/12/23 01:05:30;;;;;;;22.37;13.60;;;;;;;-1.49;60.07;102702.88;2079856;28;20573;-65
2021/12/23 01:06:30;;;;;;;19.80;13.27;;;;;;;-1.52;60.45;102700.78;2080666;28;20260;-65
2021/12/23 01:07:31;;;;;;;19.90;13.80;;;;;;;-1.75;60.42;102671.06;2080253;28;20184;-65
2021/12/23 01:08:31;;;;;;;20.97;13.63;;;;;;;-2.80;60.32;102518.97;2080547;28;20211;-65
2021/12/23 01:09:32;;;;;;;19.87;13.87;;;;;;;-2.86;60.35;102503.06;2079554;28;20738;-65
2021/12/23 01:10:33;;;;;;;20.67;13.87;;;;;;;-1.64;60.66;102702.38;2078799;28;20255;-65
2021/12/23 01:11:34;;;;;;;20.95;13.82;;;;;;;-1.64;60.61;102707.81;2080711;28;20212;-65
2021/12/23 01:12:42;;;;;;;19.53;13.63;;;;;;;-1.67;60.64;102700.25;2080395;28;20181;-65
2021/12/23 01:13:59;;;;;;;16.92;12.80;;;;;;;-1.72;60.69;102701.16;2080843;28;20165;-65
2021/12/23 01:15:13;;;;;;;17.60;13.18;;;;;;;-1.71;60.77;102699.25;2080308;28;20173;-65
2021/12/23 01:16:25;;;;;;;18.98;13.07;;;;;;;-1.69;60.62;102702.47;2080392;28;20678;-65
2021/12/23 01:18:41;;;;;;;19.50;13.20;;;;;;;-2.68;60.86;102562.69;2080579;28;20479;-65
2021/12/23 01:19:49;;;;;;;20.67;13.23;;;;;;;-1.79;60.98;102691.78;2079334;28;20173;-65
2021/12/23 01:20:53;;;;;;;17.77;12.70;;;;;;;-1.81;60.78;102702.94;2079853;28;20174;-65
2021/12/23 01:21:54;;;;;;;19.95;13.00;;;;;;;-1.85;61.00;102701.94;2080611;28;20181;-65
2021/12/23 01:23:00;;;;;;;19.00;12.80;;;;;;;-2.12;60.95;102652.97;2080299;28;20197;-65
2021/12/23 01:24:00;;;;;;;18.05;12.57;;;;;;;-2.80;60.77;102551.53;2079282;28;20177;-65
2021/12/23 01:25:00;;;;;;;19.50;13.47;;;;;;;-1.69;60.72;102711.41;2080202;28;20267;-65
2021/12/23 01:26:01;;;;;;;17.20;12.37;;;;;;;-1.71;60.87;102700.03;2080353;28;20259;-65
2021/12/23 01:27:02;;;;;;;20.17;13.17;;;;;;;-1.63;60.79;102705.59;2080218;28;20661;-65
2021/12/23 01:28:04;;;;;;;17.40;12.93;;;;;;;-1.53;60.61;102709.22;2079850;28;20221;-65
2021/12/23 01:29:05;;;;;;;18.90;12.90;;;;;;;-1.83;60.08;102674.44;2080629;28;20647;-65
2021/12/23 01:30:06;;;;;;;17.70;12.85;;;;;;;-1.50;59.94;102709.44;2079746;28;20566;-65
2021/12/23 01:31:06;;;;;;;16.58;12.80;;;;;;;-1.53;60.08;102696.44;2080027;28;20184;-65
2021/12/23 01:32:07;;;;;;;19.03;13.20;;;;;;;-1.40;59.64;102719.31;2080048;28;20659;-65
2021/12/23 01:33:09;;;;;;;17.80;13.00;;;;;;;-1.34;59.38;102705.31;2080161;28;20652;-65
2021/12/23 01:34:10;;;;;;;18.33;13.07;;;;;;;-1.35;59.63;102694.75;2080384;28;20182;-65
2021/12/23 01:35:11;;;;;;;17.47;12.37;;;;;;;-1.24;59.44;102705.09;2080550;28;20190;-65
2021/12/23 01:36:11;;;;;;;19.10;13.18;;;;;;;-2.26;58.78;102545.41;2080310;28;20744;-65
2021/12/23 01:37:12;;;;;;;17.77;13.00;;;;;;;-1.12;58.99;102711.66;2079852;28;20563;-65
2021/12/23 01:38:12;;;;;;;16.83;12.40;;;;;;;-1.04;58.94;102710.13;2080406;28;20286;-65
2021/12/23 01:39:14;;;;;;;17.80;12.83;;;;;;;-0.98;58.46;102716.28;2080218;28;20670;-65
2021/12/23 01:40:16;;;;;;;16.17;12.50;;;;;;;-0.89;57.83;102714.47;2080301;28;20178;-65
2021/12/23 01:41:17;;;;;;;19.83;12.95;;;;;;;-0.88;57.73;102710.63;2079381;28;20190;-65
2021/12/23 01:42:18;;;;;;;16.07;12.17;;;;;;;-0.86;57.76;102712.72;2079918;28;20189;-65
2021/12/23 01:43:18;;;;;;;17.13;12.03;;;;;;;-0.85;58.16;102702.66;2080791;28;20183;-65
2021/12/23 01:44:19;;;;;;;17.50;12.43;;;;;;;-1.68;57.32;102587.19;2080346;28;20649;-65
2021/12/23 01:45:26;;;;;;;17.00;12.60;;;;;;;-0.76;57.70;102698.09;2080577;28;20690;-65
2021/12/23 01:46:26;;;;;;;18.02;11.75;;;;;;;-1.31;57.38;102606.78;2079909;28;20175;-65
2021/12/23 01:47:29;;;;;;;17.97;11.90;;;;;;;-0.67;56.93;102701.69;2079927;28;20195;-65
2021/12/23 01:48:30;;;;;;;15.38;11.60;;;;;;;-0.61;56.86;102714.09;2080382;28;20193;-65
2021/12/23 01:49:31;;;;;;;15.87;11.33;;;;;;;-0.59;56.47;102700.97;2079929;28;20218;-65
2021/12/23 01:50:34;;;;;;;16.33;12.00;;;;;;;-0.57;56.51;102697.94;2079298;28;20174;-65
2021/12/23 01:51:36;;;;;;;16.20;11.65;;;;;;;-0.52;56.51;102700.53;2080631;28;20182;-65
2021/12/23 01:52:38;;;;;;;16.92;12.02;;;;;;;-1.19;56.39;102604.34;2080075;28;20235;-65
2021/12/23 01:53:40;;;;;;;17.02;11.60;;;;;;;-0.46;56.06;102703.63;2080475;28;20187;-65
2021/12/23 01:54:40;;;;;;;17.83;11.63;;;;;;;-0.47;55.96;102694.97;2080216;28;20179;-65
2021/12/23 01:55:42;;;;;;;16.83;11.40;;;;;;;-1.34;55.84;102563.88;2080014;28;20693;-65
2021/12/23 01:56:43;;;;;;;15.90;11.57;;;;;;;-1.19;55.92;102579.84;2080232;28;20613;-65
2021/12/23 01:57:44;;;;;;;14.23;10.73;;;;;;;-0.45;55.87;102699.78;2080252;28;20183;-65
2021/12/23 01:58:46;;;;;;;16.23;11.75;;;;;;;-0.46;56.09;102695.47;2080476;28;20187;-65
2021/12/23 01:59:46;;;;;;;15.73;10.88;;;;;;;-0.43;56.00;102689.41;2079335;28;20184;-65
2021/12/23 02:00:51;;;;;;;16.63;11.57;;;;;;;-0.43;55.91;102699.50;2079606;28;20228;-65
2021/12/23 02:01:51;;;;;;;18.05;11.68;;;;;;;-0.44;55.94;102695.16;2080451;28;20684;-65
2021/12/23 02:02:53;;;;;;;16.37;11.70;;;;;;;-0.43;55.82;102682.38;2079121;28;20629;-65
2021/12/23 02:03:54;;;;;;;15.63;11.82;;;;;;;-1.53;56.38;102517.00;2079277;28;20183;-65
2021/12/23 02:04:54;;;;;;;17.60;11.93;;;;;;;-1.65;55.46;102516.69;2080449;28;20652;-65
2021/12/23 02:05:55;;;;;;;17.23;11.23;;;;;;;-0.50;55.96;102678.13;2080112;28;20190;-65
2021/12/23 02:06:55;;;;;;;15.47;11.20;;;;;;;-0.46;55.98;102695.47;2080013;28;20260;-65
2021/12/23 02:07:57;;;;;;;16.30;11.67;;;;;;;-0.47;56.54;102687.59;2080309;28;20215;-65
2021/12/23 02:08:58;;;;;;;17.30;11.45;;;;;;;-0.56;55.79;102675.84;2079906;28;20196;-65
2021/12/23 02:09:58;;;;;;;17.13;11.97;;;;;;;-0.44;55.80;102689.72;2079579;28;20267;-65
2021/12/23 02:10:59;;;;;;;16.70;11.57;;;;;;;-0.46;56.10;102711.03;2079743;28;20193;-65
2021/12/23 02:12:00;;;;;;;18.30;12.13;;;;;;;-0.45;55.52;102690.84;2080418;28;20543;-65
2021/12/23 02:13:01;;;;;;;18.27;12.13;;;;;;;-0.52;55.71;102673.31;2079888;28;20178;-64
2021/12/23 02:14:02;;;;;;;16.67;11.50;;;;;;;-0.42;56.05;102688.28;2080244;28;20179;-65
2021/12/23 02:15:04;;;;;;;15.70;10.87;;;;;;;-0.41;55.67;102691.81;2080524;28;20645;-66
2021/12/23 02:16:06;;;;;;;16.90;11.95;;;;;;;-0.41;55.88;102684.44;2080034;28;20203;-65
2021/12/23 02:17:06;;;;;;;16.92;12.30;;;;;;;-0.90;55.62;102602.03;2079841;28;20190;-65
2021/12/23 02:18:07;;;;;;;18.80;12.10;;;;;;;-0.38;55.89;102692.03;2079641;28;20226;-65
2021/12/23 02:19:19;;;;;;;18.90;12.00;;;;;;;-0.39;55.11;102684.16;2080553;28;20250;-65
2021/12/23 02:20:27;;;;;;;17.42;11.18;;;;;;;-0.41;55.50;102694.53;2079895;28;20206;-65
2021/12/23 02:21:28;;;;;;;18.00;11.80;;;;;;;-0.46;55.54;102687.28;2080481;28;20177;-65
2021/12/23 02:22:28;;;;;;;16.70;11.50;;;;;;;-0.51;55.66;102681.97;2079378;28;20196;-65
2021/12/23 02:23:28;;;;;;;16.83;11.67;;;;;;;-0.54;55.59;102681.78;2080442;28;20184;-65
2021/12/23 02:24:29;;;;;;;18.97;12.13;;;;;;;-0.52;56.60;102681.47;2079363;28;20583;-65
2021/12/23 02:25:30;;;;;;;17.47;12.07;;;;;;;-0.47;55.92;102682.16;2079879;28;20205;-65
2021/12/23 02:26:37;;;;;;;16.73;12.50;;;;;;;-0.91;56.25;102616.78;2079738;28;20209;-65
2021/12/23 02:27:38;;;;;;;17.05;11.73;;;;;;;-0.46;55.53;102681.06;2080020;28;20263;-65
2021/12/23 02:28:39;;;;;;;16.15;11.70;;;;;;;-0.50;55.46;102678.13;2080150;28;20191;-65
2021/12/23 02:29:39;;;;;;;19.10;12.57;;;;;;;-0.49;55.61;102681.66;2079673;28;20210;-65
2021/12/23 02:30:40;;;;;;;17.27;12.20;;;;;;;-0.58;55.84;102678.06;2079642;28;20203;-65
2021/12/23 02:31:40;;;;;;;19.40;13.27;;;;;;;-0.62;56.02;102679.78;2081123;28;20189;-65
2021/12/23 02:32:41;;;;;;;18.47;12.50;;;;;;;-0.73;55.91;102681.94;2081360;28;20182;-65
2021/12/23 02:33:42;;;;;;;20.27;13.20;;;;;;;-0.84;56.39;102687.91;2082119;28;20496;-65
2021/12/23 02:34:42;;;;;;;20.17;13.27;;;;;;;-0.88;56.61;102678.75;2081825;28;20607;-65
2021/12/23 02:35:43;;;;;;;16.83;11.80;;;;;;;-0.98;57.29;102679.78;2081464;28;20183;-65
2021/12/23 02:36:50;;;;;;;17.93;13.03;;;;;;;-1.08;57.29;102683.84;2081591;28;20218;-65
2021/12/23 02:37:51;;;;;;;17.05;12.70;;;;;;;-1.05;57.64;102684.03;2081755;28;20673;-65
2021/12/23 02:38:52;;;;;;;17.37;12.70;;;;;;;-1.19;57.24;102653.31;2081789;28;20575;-65
2021/12/23 02:39:53;;;;;;;20.30;13.45;;;;;;;-1.12;57.26;102679.00;2081177;28;20659;-65
2021/12/23 02:40:53;;;;;;;18.30;13.57;;;;;;;-1.33;57.41;102656.03;2079916;28;20662;-65
2021/12/23 02:41:55;;;;;;;18.03;13.23;;;;;;;-1.33;57.38;102644.38;2081106;28;20275;-65
2021/12/23 02:42:58;;;;;;;16.80;12.45;;;;;;;-1.43;57.66;102624.72;2081575;28;20239;-65
2021/12/23 02:43:58;;;;;;;19.58;13.98;;;;;;;-1.16;57.66;102680.69;2081602;28;20574;-65
2021/12/23 02:44:59;;;;;;;18.70;13.73;;;;;;;-1.13;57.93;102670.34;2081321;28;20187;-65
2021/12/23 02:46:00;;;;;;;20.45;13.98;;;;;;;-2.23;57.50;102545.59;2081844;28;20438;-64
2021/12/23 02:47:00;;;;;;;18.67;13.93;;;;;;;-1.24;57.80;102679.81;2081417;28;20178;-65
2021/12/23 02:48:01;;;;;;;20.07;14.40;;;;;;;-2.23;57.61;102547.50;2081628;28;20186;-65
2021/12/23 02:49:02;;;;;;;19.67;14.07;;;;;;;-2.36;58.44;102507.59;2081653;28;20719;-65
2021/12/23 02:50:05;;;;;;;19.88;13.68;;;;;;;-1.45;57.88;102670.47;2072722;28;20649;-65
2021/12/23 02:51:09;;;;;;;17.90;13.13;;;;;;;-1.37;57.98;102676.00;2072949;28;20197;-65
2021/12/23 02:52:10;;;;;;;16.05;12.07;;;;;;;-1.34;57.95;102682.75;2073024;28;20199;-65
2021/12/23 02:53:11;;;;;;;16.67;12.03;;;;;;;-1.33;57.80;102674.28;2080920;28;20196;-65
2021/12/23 02:54:11;;;;;;;18.58;13.30;;;;;;;-1.31;57.73;102677.50;2080859;28;20214;-65
2021/12/23 02:55:12;;;;;;;18.87;12.73;;;;;;;-1.30;57.29;102678.31;2082001;28;20186;-65
2021/12/23 02:56:15;;;;;;;17.50;12.40;;;;;;;-1.78;57.62;102606.41;2081448;28;20210;-65
2021/12/23 02:57:15;;;;;;;19.75;12.93;;;;;;;-1.33;58.62;102683.25;2081435;28;20173;-65
2021/12/23 02:58:16;;;;;;;19.33;13.90;;;;;;;-1.33;57.82;102679.75;2081032;28;20267;-65
2021/12/23 02:59:16;;;;;;;20.70;13.73;;;;;;;-1.30;58.05;102678.31;2081210;28;20264;-65
2021/12/23 03:00:17;;;;;;;18.63;13.40;;;;;;;-1.29;57.47;102682.66;2081431;28;20265;-65
2021/12/23 03:01:19;;;;;;;18.40;12.63;;;;;;;-1.28;57.88;102689.69;2081159;28;20817;-65
2021/12/23 03:02:20;;;;;;;19.00;13.40;;;;;;;-1.28;57.67;102679.63;2081170;28;20192;-65
2021/12/23 03:03:21;;;;;;;21.27;13.37;;;;;;;-1.27;57.57;102683.97;2081102;28;20241;-65
2021/12/23 03:04:22;;;;;;;20.88;13.48;;;;;;;-1.29;57.85;102688.88;2081451;28;20184;-65
2021/12/23 03:05:23;;;;;;;17.80;12.80;;;;;;;-1.33;57.78;102672.38;2081568;28;20190;-65
2021/12/23 03:06:25;;;;;;;21.30;13.10;;;;;;;-1.26;57.62;102683.63;2081514;28;20170;-65
2021/12/23 03:07:25;;;;;;;17.88;13.50;;;;;;;-1.27;57.26;102681.25;2080437;28;20277;-65
2021/12/23 03:08:38;;;;;;;19.87;14.53;;;;;;;-1.26;58.05;102680.13;2081461;28;20213;-65
2021/12/23 03:09:38;;;;;;;19.67;13.63;;;;;;;-1.39;57.48;102667.31;2081160;28;20222;-65
2021/12/23 03:10:39;;;;;;;18.10;13.00;;;;;;;-1.37;57.59;102657.75;2080886;28;20550;-65
2021/12/23 03:11:40;;;;;;;17.93;12.63;;;;;;;-1.28;57.71;102665.22;2081005;28;20197;-65
2021/12/23 03:12:41;;;;;;;17.08;12.65;;;;;;;-1.24;57.64;102683.34;2081034;28;20185;-65
2021/12/23 03:13:41;;;;;;;20.73;14.60;;;;;;;-1.97;57.74;102560.31;2081664;28;20280;-65
2021/12/23 03:14:42;;;;;;;21.30;14.17;;;;;;;-1.24;57.76;102677.91;2081397;28;20186;-65
2021/12/23 03:15:42;;;;;;;18.30;12.47;;;;;;;-1.21;57.40;102685.47;2081749;28;20209;-65
2021/12/23 03:16:44;;;;;;;19.90;14.33;;;;;;;-1.18;57.97;102676.69;2080695;28;20207;-65
2021/12/23 03:17:45;;;;;;;20.38;13.85;;;;;;;-1.14;57.79;102683.13;2081364;28;20564;-65
2021/12/23 03:18:46;;;;;;;19.97;13.93;;;;;;;-2.12;57.27;102522.56;2081445;28;20201;-65
2021/12/23 03:19:46;;;;;;;20.45;13.48;;;;;;;-1.88;56.98;102567.44;2080939;28;20180;-65
2021/12/23 03:20:47;;;;;;;19.77;14.47;;;;;;;-1.22;57.75;102676.47;2080079;28;20671;-65
2021/12/23 03:21:47;;;;;;;19.67;14.23;;;;;;;-1.18;57.30;102675.88;2081587;28;20181;-65
2021/12/23 03:22:48;;;;;;;22.87;14.20;;;;;;;-1.13;57.04;102678.50;2081366;28;20239;-65
2021/12/23 03:23:48;;;;;;;20.70;14.13;;;;;;;-1.11;56.95;102668.94;2081565;28;20190;-65
2021/12/23 03:24:49;;;;;;;23.50;14.43;;;;;;;-1.08;56.75;102671.84;2081478;28;20171;-65
2021/12/23 03:25:49;;;;;;;21.93;14.30;;;;;;;-1.10;56.76;102670.53;2080328;28;20199;-65
2021/12/23 03:26:51;;;;;;;23.43;14.13;;;;;;;-1.08;57.21;102662.06;2079863;28;20180;-65
2021/12/23 03:27:51;;;;;;;24.73;14.57;;;;;;;-1.07;57.31;102667.22;2081463;28;20676;-65
2021/12/23 03:28:52;;;;;;;26.83;14.67;;;;;;;-1.02;56.87;102665.16;2081377;28;20255;-65
2021/12/23 03:29:54;;;;;;;24.00;15.20;;;;;;;-1.06;56.90;102672.31;2080157;28;20178;-65
2021/12/23 03:30:55;;;;;;;22.40;15.07;;;;;;;-1.01;56.67;102668.72;2080682;28;20178;-65
2021/12/23 03:31:56;;;;;;;22.63;14.60;;;;;;;-1.01;56.57;102664.06;2081471;28;20682;-65
2021/12/23 03:32:56;;;;;;;25.37;15.23;;;;;;;-1.02;56.42;102665.16;2081279;28;20626;-65
2021/12/23 03:33:57;;;;;;;23.80;14.77;;;;;;;-2.50;56.33;102434.28;2081189;28;20485;-65
2021/12/23 03:34:57;;;;;;;22.10;14.80;;;;;;;-1.03;56.76;102664.69;2081033;28;20190;-65
2021/12/23 03:35:58;;;;;;;22.10;15.20;;;;;;;-1.80;56.64;102557.78;2081190;28;20196;-65
2021/12/23 03:36:59;;;;;;;27.23;15.30;;;;;;;-1.06;56.82;102668.81;2081001;28;20265;-65
2021/12/23 03:38:00;;;;;;;27.03;14.90;;;;;;;-1.34;56.67;102631.06;2081100;28;20186;-65
2021/12/23 03:39:01;;;;;;;20.33;14.25;;;;;;;-1.08;57.41;102674.56;2081022;28;20643;-65
2021/12/23 03:40:03;;;;;;;22.10;14.93;;;;;;;-1.12;57.04;102670.84;2080546;28;20266;-65
2021/12/23 03:41:03;;;;;;;19.15;14.13;;;;;;;-1.14;57.53;102679.63;2080497;28;20209;-65
2021/12/23 03:42:04;;;;;;;22.27;14.57;;;;;;;-1.17;56.90;102676.38;2080119;28;20206;-65
2021/12/23 03:43:05;;;;;;;19.98;14.23;;;;;;;-1.17;57.32;102686.47;2080021;28;20647;-65
2021/12/23 03:44:06;;;;;;;18.43;13.57;;;;;;;-1.19;56.96;102680.50;2080625;28;20624;-65
2021/12/23 03:45:08;;;;;;;19.10;13.93;;;;;;;-1.18;57.23;102679.41;2081586;28;20182;-65
2021/12/23 03:46:09;;;;;;;20.92;13.43;;;;;;;-1.19;57.55;102677.00;2080497;28;20175;-65
2021/12/23 03:47:09;;;;;;;21.90;13.90;;;;;;;-1.21;57.21;102678.09;2080381;28;20661;-65
2021/12/23 03:48:11;;;;;;;20.20;14.10;;;;;;;-1.21;57.65;102677.31;2080427;28;20427;-65
2021/12/23 03:49:12;;;;;;;21.05;14.40;;;;;;;-1.23;57.65;102674.06;2080976;28;20189;-65
2021/12/23 03:50:12;;;;;;;22.40;14.80;;;;;;;-1.73;57.64;102588.09;2080963;28;20193;-65
2021/12/23 03:51:13;;;;;;;21.63;14.37;;;;;;;-1.22;57.41;102673.75;2080733;28;20694;-65
2021/12/23 03:52:13;;;;;;;21.60;15.10;;;;;;;-1.19;57.22;102674.28;2080648;28;20186;-65
2021/12/23 03:53:16;;;;;;;22.73;13.93;;;;;;;-2.24;57.12;102511.41;2081250;28;20186;-65
2021/12/23 03:54:16;;;;;;;22.02;14.55;;;;;;;-1.23;57.18;102676.78;2081003;28;20236;-65
2021/12/23 03:55:18;;;;;;;19.70;14.70;;;;;;;-1.25;57.37;102670.84;2081303;28;20652;-65
2021/12/23 03:56:18;;;;;;;22.40;14.57;;;;;;;-1.23;57.06;102665.91;2081006;28;20247;-65
2021/12/23 03:57:19;;;;;;;19.87;14.83;;;;;;;-1.23;57.40;102676.78;2080364;28;20199;-65
2021/12/23 03:58:20;;;;;;;21.17;14.00;;;;;;;-1.23;57.48;102673.28;2081142;28;20224;-65
2021/12/23 03:59:21;;;;;;;20.65;14.93;;;;;;;-2.39;57.47;102486.44;2080668;28;20178;-65
2021/12/23 04:00:22;;;;;;;20.00;14.43;;;;;;;-1.24;57.61;102666.22;2080621;28;20265;-65
2021/12/23 04:01:24;;;;;;;21.30;14.50;;;;;;;-1.35;57.33;102662.09;2080536;28;20179;-65
2021/12/23 04:02:25;;;;;;;20.95;15.38;;;;;;;-1.27;57.67;102673.06;2080652;28;20208;-65
2021/12/23 04:03:25;;;;;;;22.50;15.00;;;;;;;-1.30;57.87;102684.56;2081206;28;20249;-65
2021/12/23 04:04:26;;;;;;;22.33;15.43;;;;;;;-1.28;57.71;102670.66;2080953;28;20207;-65
2021/12/23 04:05:26;;;;;;;20.17;14.70;;;;;;;-1.29;57.83;102678.00;2081286;28;20660;-65
2021/12/23 04:06:27;;;;;;;22.90;16.07;;;;;;;-1.33;57.96;102680.53;2080624;28;20209;-65
2021/12/23 04:07:27;;;;;;;22.97;15.73;;;;;;;-1.33;57.86;102683.25;2080864;28;20194;-65
2021/12/23 04:08:28;;;;;;;24.27;17.07;;;;;;;-1.29;58.21;102683.44;2081060;28;20190;-65
2021/12/23 04:09:28;;;;;;;20.33;14.27;;;;;;;-1.27;57.69;102684.75;2080461;28;20347;-65
2021/12/23 04:10:29;;;;;;;22.33;14.93;;;;;;;-1.24;58.35;102671.66;2079869;28;20193;-65
2021/12/23 04:11:30;;;;;;;20.13;14.20;;;;;;;-1.21;57.65;102675.38;2081092;28;20179;-65
2021/12/23 04:12:30;;;;;;;22.80;16.40;;;;;;;-1.19;57.88;102679.72;2080695;28;20296;-65
2021/12/23 04:13:31;;;;;;;23.27;16.63;;;;;;;-1.23;57.90;102681.44;2081297;28;20185;-65
2021/12/23 04:14:31;;;;;;;25.27;17.60;;;;;;;-1.26;58.08;102677.41;2081038;28;20182;-65
2021/12/23 04:15:32;;;;;;;24.63;17.73;;;;;;;-1.33;58.29;102677.81;2080772;28;20197;-65
2021/12/23 04:16:32;;;;;;;25.57;17.77;;;;;;;-1.35;58.18;102681.16;2080757;28;20347;-65
2021/12/23 04:17:33;;;;;;;23.97;16.23;;;;;;;-1.37;58.68;102676.78;2080580;28;20186;-65
2021/12/23 04:18:33;;;;;;;23.37;15.77;;;;;;;-1.42;58.36;102679.63;2080967;28;20206;-65
2021/12/23 04:19:34;;;;;;;27.53;16.63;;;;;;;-1.42;58.21;102686.16;2080071;28;20189;-65
2021/12/23 04:20:46;;;;;;;24.73;17.13;;;;;;;-1.42;57.85;102685.06;2080294;28;20183;-65
2021/12/23 04:21:46;;;;;;;28.42;15.88;;;;;;;-1.47;57.94;102689.81;2081114;28;20637;-64
2021/12/23 04:22:51;;;;;;;24.73;16.03;;;;;;;-1.47;57.53;102689.81;2080735;28;20630;-65
2021/12/23 04:23:52;;;;;;;26.42;15.15;;;;;;;-1.48;57.51;102690.91;2080890;28;20700;-65
2021/12/23 04:24:52;;;;;;;22.93;16.33;;;;;;;-1.50;58.13;102693.13;2080702;28;20563;-65
2021/12/23 04:25:54;;;;;;;22.13;15.50;;;;;;;-1.48;57.87;102699.06;2080998;28;20182;-65
2021/12/23 04:26:54;;;;;;;22.15;15.82;;;;;;;-1.48;57.79;102691.69;2080379;28;20594;-65
2021/12/23 04:28:00;;;;;;;23.80;16.07;;;;;;;-1.61;58.44;102699.84;2081000;28;20261;-65
2021/12/23 04:29:02;;;;;;;22.40;15.63;;;;;;;-1.59;58.36;102691.41;2080574;28;20171;-65
2021/12/23 04:30:05;;;;;;;19.50;14.27;;;;;;;-1.62;58.66;102692.81;2080025;28;20178;-65
2021/12/23 04:31:06;;;;;;;22.55;15.50;;;;;;;-1.63;58.97;102702.88;2079584;28;20190;-65
2021/12/23 04:32:07;;;;;;;22.30;15.93;;;;;;;-1.70;59.54;102703.59;2079988;28;20640;-65
2021/12/23 04:33:07;;;;;;;22.02;15.70;;;;;;;-1.86;59.65;102705.75;2080508;28;20233;-66
2021/12/23 04:34:08;;;;;;;22.60;16.37;;;;;;;-3.12;59.85;102518.94;2080676;28;20191;-65
2021/12/23 04:35:09;;;;;;;24.17;17.50;;;;;;;-1.79;60.39;102703.47;2081208;28;20174;-65
2021/12/23 04:36:10;;;;;;;26.15;18.58;;;;;;;-2.31;61.07;102616.91;2080832;28;20217;-65
2021/12/23 04:37:10;;;;;;;26.20;17.90;;;;;;;-1.79;60.86;102708.91;2080689;28;20268;-65
2021/12/23 04:38:11;;;;;;;28.60;18.77;;;;;;;-1.71;61.12;102710.91;2080062;28;20282;-65
2021/12/23 04:39:11;;;;;;;24.40;17.83;;;;;;;-2.67;61.69;102552.66;2080524;28;20185;-65
2021/12/23 04:40:14;;;;;;;26.43;17.73;;;;;;;-2.03;61.66;102651.97;2080519;28;20212;-65
2021/12/23 04:41:14;;;;;;;28.10;18.25;;;;;;;-1.51;61.24;102705.09;2080223;28;20236;-65
2021/12/23 04:42:15;;;;;;;25.87;17.67;;;;;;;-1.55;60.56;102708.75;2079678;28;20193;-65
2021/12/23 04:43:15;;;;;;;27.40;18.50;;;;;;;-1.59;61.33;102707.72;2081057;28;20186;-65
2021/12/23 04:44:16;;;;;;;28.17;18.93;;;;;;;-2.36;61.70;102589.03;2080751;28;20186;-65
2021/12/23 04:45:35;;;;;;;26.10;18.47;;;;;;;-2.42;60.92;102573.94;2080405;28;20759;-65
2021/12/23 04:46:36;;;;;;;26.83;17.98;;;;;;;-1.48;61.05;102704.50;2079709;28;20165;-65
2021/12/23 04:47:37;;;;;;;29.73;19.13;;;;;;;-1.41;60.00;102704.91;2080436;28;20186;-65